sensor_id;sensor_type;location;lat;lon;timestamp;temperature;humidity
26049;DHT22;13822;51.568;5.086;2023-05-13T04:53:20;12.40;99.90
26049;DHT22;13822;51.568;5.086;2023-05-13T04:58:22;12.50;99.90
26049;DHT22;13822;51.568;5.086;2023-05-13T05:03:25;12.40;99.90
26049;DHT22;13822;51.568;5.086;2023-05-13T05:08:27;12.50;99.90
26049;DHT22;13822;51.568;5.086;2023-05-13T05:13:29;12.50;99.90
26049;DHT22;13822;51.568;5.086;2023-05-13T05:18:31;12.50;99.90
26049;DHT22;13822;51.568;5.086;2023-05-13T05:23:33;12.60;99.90
26049;DHT22;13822;51.568;5.086;2023-05-13T05:28:35;12.60;99.90
26049;DHT22;13822;51.568;5.086;2023-05-13T05:33:38;12.70;99.90
26049;DHT22;13822;51.568;5.086;2023-05-13T05:38:41;12.70;99.90
26049;DHT22;13822;51.568;5.086;2023-05-13T05:43:42;12.80;99.90
26049;DHT22;13822;51.568;5.086;2023-05-13T05:48:44;12.80;99.90
26049;DHT22;13822;51.568;5.086;2023-05-13T05:53:46;12.90;99.90
26049;DHT22;13822;51.568;5.086;2023-05-13T05:58:48;13.00;99.90
26049;DHT22;13822;51.568;5.086;2023-05-13T06:03:50;13.10;99.90
26049;DHT22;13822;51.568;5.086;2023-05-13T06:08:55;13.20;99.90
26049;DHT22;13822;51.568;5.086;2023-05-13T06:13:57;13.30;99.90
26049;DHT22;13822;51.568;5.086;2023-05-13T06:18:59;13.40;99.90
26049;DHT22;13822;51.568;5.086;2023-05-13T06:24:01;13.50;99.90
26049;DHT22;13822;51.568;5.086;2023-05-13T06:29:03;13.60;99.90
26049;DHT22;13822;51.568;5.086;2023-05-13T06:34:05;13.60;99.90
26049;DHT22;13822;51.568;5.086;2023-05-13T06:39:07;13.60;99.90
26049;DHT22;13822;51.568;5.086;2023-05-13T06:44:10;13.80;99.90
26049;DHT22;13822;51.568;5.086;2023-05-13T06:49:11;13.90;99.90
26049;DHT22;13822;51.568;5.086;2023-05-13T06:54:13;14.00;99.90
26049;DHT22;13822;51.568;5.086;2023-05-13T06:59:15;14.10;99.90
26049;DHT22;13822;51.568;5.086;2023-05-13T07:04:17;14.10;99.90
26049;DHT22;13822;51.568;5.086;2023-05-13T07:09:19;14.10;99.90
26049;DHT22;13822;51.568;5.086;2023-05-13T07:14:21;14.10;99.90
26049;DHT22;13822;51.568;5.086;2023-05-13T07:19:25;14.20;99.90
26049;DHT22;13822;51.568;5.086;2023-05-13T07:24:27;14.30;99.90
26049;DHT22;13822;51.568;5.086;2023-05-13T07:29:29;14.50;99.90
26049;DHT22;13822;51.568;5.086;2023-05-13T07:34:32;14.60;99.90
26049;DHT22;13822;51.568;5.086;2023-05-13T07:39:34;14.80;99.90
26049;DHT22;13822;51.568;5.086;2023-05-13T07:44:36;15.00;99.90
26049;DHT22;13822;51.568;5.086;2023-05-13T07:49:38;15.10;99.90
26049;DHT22;13822;51.568;5.086;2023-05-13T07:54:40;15.30;99.90
26049;DHT22;13822;51.568;5.086;2023-05-13T07:59:42;15.50;99.90
26049;DHT22;13822;51.568;5.086;2023-05-13T08:04:48;15.70;99.90
26049;DHT22;13822;51.568;5.086;2023-05-13T08:09:52;15.90;99.90
26049;DHT22;13822;51.568;5.086;2023-05-13T08:14:54;16.10;99.90
26049;DHT22;13822;51.568;5.086;2023-05-13T08:19:57;16.40;99.90
26049;DHT22;13822;51.568;5.086;2023-05-13T08:25:00;16.60;99.90
26049;DHT22;13822;51.568;5.086;2023-05-13T08:30:04;16.70;99.90
26049;DHT22;13822;51.568;5.086;2023-05-13T08:35:06;17.00;99.90
26049;DHT22;13822;51.568;5.086;2023-05-13T08:40:09;17.20;99.90
26049;DHT22;13822;51.568;5.086;2023-05-13T08:45:12;17.30;99.90
26049;DHT22;13822;51.568;5.086;2023-05-13T08:50:14;17.50;99.90
26049;DHT22;13822;51.568;5.086;2023-05-13T08:55:16;17.70;99.90
26049;DHT22;13822;51.568;5.086;2023-05-13T09:00:18;18.00;99.90
26049;DHT22;13822;51.568;5.086;2023-05-13T09:05:22;18.00;99.90
26049;DHT22;13822;51.568;5.086;2023-05-13T09:10:26;18.30;99.90
26049;DHT22;13822;51.568;5.086;2023-05-13T09:15:28;18.50;99.90
26049;DHT22;13822;51.568;5.086;2023-05-13T09:20:31;18.60;99.90
26049;DHT22;13822;51.568;5.086;2023-05-13T09:25:33;18.90;99.90
26049;DHT22;13822;51.568;5.086;2023-05-13T09:30:36;19.00;99.90
26049;DHT22;13822;51.568;5.086;2023-05-13T09:35:47;19.10;99.90
26049;DHT22;13822;51.568;5.086;2023-05-13T09:40:57;19.30;99.90
26049;DHT22;13822;51.568;5.086;2023-05-13T09:46:02;19.40;99.90
26049;DHT22;13822;51.568;5.086;2023-05-13T09:51:05;19.60;99.90
26049;DHT22;13822;51.568;5.086;2023-05-13T09:56:08;19.80;99.90
26049;DHT22;13822;51.568;5.086;2023-05-13T10:01:10;19.90;99.90
26049;DHT22;13822;51.568;5.086;2023-05-13T10:06:13;20.30;99.90
26049;DHT22;13822;51.568;5.086;2023-05-13T10:11:22;20.50;99.90
26049;DHT22;13822;51.568;5.086;2023-05-13T10:16:25;20.70;99.90
26049;DHT22;13822;51.568;5.086;2023-05-13T10:21:28;21.00;99.90
26049;DHT22;13822;51.568;5.086;2023-05-13T10:26:30;21.20;99.90
26049;DHT22;13822;51.568;5.086;2023-05-13T10:31:32;21.30;99.90
26049;DHT22;13822;51.568;5.086;2023-05-13T10:42:14;21.80;99.90
26049;DHT22;13822;51.568;5.086;2023-05-13T10:47:28;22.00;99.90
26049;DHT22;13822;51.568;5.086;2023-05-13T10:52:42;22.20;99.90
26049;DHT22;13822;51.568;5.086;2023-05-13T11:13:39;23.40;95.20
26049;DHT22;13822;51.568;5.086;2023-05-13T11:18:41;23.50;84.20
26049;DHT22;13822;51.568;5.086;2023-05-13T11:23:54;23.60;83.50
26049;DHT22;13822;51.568;5.086;2023-05-13T11:28:58;23.80;78.10
26049;DHT22;13822;51.568;5.086;2023-05-13T11:34:06;23.90;79.10
26049;DHT22;13822;51.568;5.086;2023-05-13T11:39:12;24.10;78.90
26049;DHT22;13822;51.568;5.086;2023-05-13T11:44:15;24.20;70.80
26049;DHT22;13822;51.568;5.086;2023-05-13T11:49:37;24.50;69.50
26049;DHT22;13822;51.568;5.086;2023-05-13T11:54:41;24.70;68.30
26049;DHT22;13822;51.568;5.086;2023-05-13T12:05:08;24.90;57.50
26049;DHT22;13822;51.568;5.086;2023-05-13T12:10:11;25.30;60.20
26049;DHT22;13822;51.568;5.086;2023-05-13T12:15:17;25.10;60.60
26049;DHT22;13822;51.568;5.086;2023-05-13T12:20:21;24.90;58.00
26049;DHT22;13822;51.568;5.086;2023-05-13T12:41:18;26.20;55.00
26049;DHT22;13822;51.568;5.086;2023-05-13T12:46:22;25.70;56.30
26049;DHT22;13822;51.568;5.086;2023-05-13T12:51:25;24.90;54.80
26049;DHT22;13822;51.568;5.086;2023-05-13T12:56:27;24.70;56.50
26049;DHT22;13822;51.568;5.086;2023-05-13T13:01:29;24.80;53.90
26049;DHT22;13822;51.568;5.086;2023-05-13T13:06:31;24.50;52.90
26049;DHT22;13822;51.568;5.086;2023-05-13T13:11:34;24.70;51.70
26049;DHT22;13822;51.568;5.086;2023-05-13T13:16:36;24.90;54.70
26049;DHT22;13822;51.568;5.086;2023-05-13T13:21:38;24.30;52.90
26049;DHT22;13822;51.568;5.086;2023-05-13T13:26:40;24.00;58.10
26049;DHT22;13822;51.568;5.086;2023-05-13T13:31:42;24.40;55.20
26049;DHT22;13822;51.568;5.086;2023-05-13T13:36:47;25.10;52.20
26049;DHT22;13822;51.568;5.086;2023-05-13T13:41:49;25.70;52.90
26049;DHT22;13822;51.568;5.086;2023-05-13T13:46:57;26.20;50.30
26049;DHT22;13822;51.568;5.086;2023-05-13T13:51:59;26.70;45.70
26049;DHT22;13822;51.568;5.086;2023-05-13T13:57:01;26.80;45.40
26049;DHT22;13822;51.568;5.086;2023-05-13T14:02:03;26.90;39.50
26049;DHT22;13822;51.568;5.086;2023-05-13T14:07:05;26.80;39.60
26049;DHT22;13822;51.568;5.086;2023-05-13T14:12:07;26.90;39.30
26049;DHT22;13822;51.568;5.086;2023-05-13T14:17:11;26.80;38.80
26049;DHT22;13822;51.568;5.086;2023-05-13T14:22:14;26.70;42.00
26049;DHT22;13822;51.568;5.086;2023-05-13T14:27:16;26.80;43.60
26049;DHT22;13822;51.568;5.086;2023-05-13T14:32:19;26.70;40.10
26049;DHT22;13822;51.568;5.086;2023-05-13T14:37:21;26.60;41.50
26049;DHT22;13822;51.568;5.086;2023-05-13T14:42:23;26.70;42.20
26049;DHT22;13822;51.568;5.086;2023-05-13T14:47:25;27.00;39.90
26049;DHT22;13822;51.568;5.086;2023-05-13T14:52:27;26.90;42.30
26049;DHT22;13822;51.568;5.086;2023-05-13T14:57:29;26.70;39.40
26049;DHT22;13822;51.568;5.086;2023-05-13T15:02:30;26.70;40.20
26049;DHT22;13822;51.568;5.086;2023-05-13T15:07:32;26.70;38.10
26049;DHT22;13822;51.568;5.086;2023-05-13T15:12:34;26.70;35.80
26049;DHT22;13822;51.568;5.086;2023-05-13T15:17:36;26.20;38.30
26049;DHT22;13822;51.568;5.086;2023-05-13T15:22:38;25.70;42.40
26049;DHT22;13822;51.568;5.086;2023-05-13T15:27:40;25.90;42.00
26049;DHT22;13822;51.568;5.086;2023-05-13T15:32:44;26.20;39.40
26049;DHT22;13822;51.568;5.086;2023-05-13T15:37:45;25.70;38.90
26049;DHT22;13822;51.568;5.086;2023-05-13T15:42:47;25.50;41.20
26049;DHT22;13822;51.568;5.086;2023-05-13T15:47:49;25.30;38.80
26049;DHT22;13822;51.568;5.086;2023-05-13T15:52:52;25.10;37.50
26049;DHT22;13822;51.568;5.086;2023-05-13T15:57:55;25.10;40.40
26049;DHT22;13822;51.568;5.086;2023-05-13T16:02:56;24.70;40.70
26049;DHT22;13822;51.568;5.086;2023-05-13T16:07:58;24.30;39.80
26049;DHT22;13822;51.568;5.086;2023-05-13T16:13:01;24.10;40.20
26049;DHT22;13822;51.568;5.086;2023-05-13T16:18:03;24.20;43.10
26049;DHT22;13822;51.568;5.086;2023-05-13T16:23:05;24.20;38.70
26049;DHT22;13822;51.568;5.086;2023-05-13T16:28:06;24.00;38.80
26049;DHT22;13822;51.568;5.086;2023-05-13T16:33:10;23.90;42.00
26049;DHT22;13822;51.568;5.086;2023-05-13T16:38:12;23.90;40.10
26049;DHT22;13822;51.568;5.086;2023-05-13T16:43:14;23.80;44.00
26049;DHT22;13822;51.568;5.086;2023-05-13T16:48:16;23.60;40.30
26049;DHT22;13822;51.568;5.086;2023-05-13T16:53:18;23.60;41.50
26049;DHT22;13822;51.568;5.086;2023-05-13T16:58:22;23.50;43.10
26049;DHT22;13822;51.568;5.086;2023-05-13T17:03:24;23.50;42.10
26049;DHT22;13822;51.568;5.086;2023-05-13T17:08:26;23.30;42.00
26049;DHT22;13822;51.568;5.086;2023-05-13T17:13:28;23.10;43.80
26049;DHT22;13822;51.568;5.086;2023-05-13T17:18:30;23.00;45.10
26049;DHT22;13822;51.568;5.086;2023-05-13T17:23:32;22.90;45.20
26049;DHT22;13822;51.568;5.086;2023-05-13T17:28:34;22.80;46.40
26049;DHT22;13822;51.568;5.086;2023-05-13T17:33:36;22.80;49.30
26049;DHT22;13822;51.568;5.086;2023-05-13T17:38:38;22.90;49.40
26049;DHT22;13822;51.568;5.086;2023-05-13T17:43:40;22.80;51.30
26049;DHT22;13822;51.568;5.086;2023-05-13T17:48:41;22.60;53.50
26049;DHT22;13822;51.568;5.086;2023-05-13T17:53:43;22.30;53.90
26049;DHT22;13822;51.568;5.086;2023-05-13T17:58:45;22.20;55.00
26049;DHT22;13822;51.568;5.086;2023-05-13T18:03:47;22.00;57.60
26049;DHT22;13822;51.568;5.086;2023-05-13T18:08:49;22.00;58.50
26049;DHT22;13822;51.568;5.086;2023-05-13T18:13:51;21.90;59.80
26049;DHT22;13822;51.568;5.086;2023-05-13T18:18:53;21.90;61.30
26049;DHT22;13822;51.568;5.086;2023-05-13T18:23:55;21.70;62.50
26049;DHT22;13822;51.568;5.086;2023-05-13T18:28:57;21.50;63.30
26049;DHT22;13822;51.568;5.086;2023-05-13T18:34:00;21.30;65.70
26049;DHT22;13822;51.568;5.086;2023-05-13T18:39:02;21.10;67.10
26049;DHT22;13822;51.568;5.086;2023-05-13T18:44:04;20.90;67.50
26049;DHT22;13822;51.568;5.086;2023-05-13T18:49:06;20.70;68.60
26049;DHT22;13822;51.568;5.086;2023-05-13T18:54:08;20.50;69.20
26049;DHT22;13822;51.568;5.086;2023-05-13T18:59:10;20.30;72.00
26049;DHT22;13822;51.568;5.086;2023-05-13T19:04:12;20.20;74.30
26049;DHT22;13822;51.568;5.086;2023-05-13T19:09:16;20.00;76.10
26049;DHT22;13822;51.568;5.086;2023-05-13T19:14:17;19.90;78.40
26049;DHT22;13822;51.568;5.086;2023-05-13T19:19:19;19.80;81.50
26049;DHT22;13822;51.568;5.086;2023-05-13T19:24:21;19.70;84.10
26049;DHT22;13822;51.568;5.086;2023-05-13T19:29:23;19.50;87.40
26049;DHT22;13822;51.568;5.086;2023-05-13T19:34:25;19.40;90.50
26049;DHT22;13822;51.568;5.086;2023-05-13T19:39:27;19.20;91.80
26049;DHT22;13822;51.568;5.086;2023-05-13T19:44:29;19.20;94.40
26049;DHT22;13822;51.568;5.086;2023-05-13T19:49:32;19.00;95.40
26049;DHT22;13822;51.568;5.086;2023-05-13T19:54:34;18.90;97.30
26049;DHT22;13822;51.568;5.086;2023-05-13T19:59:36;18.80;99.70
26049;DHT22;13822;51.568;5.086;2023-05-13T20:04:39;18.60;99.90
26049;DHT22;13822;51.568;5.086;2023-05-13T20:09:41;18.60;99.90
